createdAt,value
2018-09-19T00:01:04.413Z,19.50
2018-09-19T00:03:32.703Z,19.40
2018-09-19T00:06:00.987Z,19.40
2018-09-19T00:08:29.259Z,19.40
2018-09-19T00:10:57.527Z,19.30
2018-09-19T00:13:25.913Z,19.30
2018-09-19T00:15:54.253Z,19.30
2018-09-19T00:18:22.562Z,19.30
2018-09-19T00:20:50.870Z,19.20
2018-09-19T00:23:19.091Z,19.20
2018-09-19T00:25:47.333Z,19.20
2018-09-19T00:28:15.525Z,19.30
2018-09-19T00:30:43.731Z,19.30
2018-09-19T00:33:11.973Z,19.30
2018-09-19T00:35:40.325Z,19.20
2018-09-19T00:38:08.539Z,19.10
2018-09-19T00:40:37.153Z,19.00
2018-09-19T00:43:05.415Z,19.00
2018-09-19T00:45:33.711Z,18.90
2018-09-19T00:48:02.040Z,18.80
2018-09-19T00:50:30.345Z,18.80
2018-09-19T00:52:58.674Z,18.80
2018-09-19T00:55:26.988Z,18.90
2018-09-19T00:57:55.224Z,18.80
2018-09-19T01:00:23.729Z,18.70
2018-09-19T01:02:51.941Z,18.70
2018-09-19T01:05:20.229Z,18.70
2018-09-19T01:07:48.556Z,18.70
2018-09-19T01:10:16.776Z,18.50
2018-09-19T01:12:45.019Z,18.30
2018-09-19T01:15:13.263Z,18.40
2018-09-19T01:17:41.507Z,18.40
2018-09-19T01:20:09.777Z,18.40
2018-09-19T01:22:38.032Z,18.20
2018-09-19T01:25:06.277Z,18.10
2018-09-19T01:27:34.890Z,18.00
2018-09-19T01:30:03.127Z,18.00
2018-09-19T01:32:31.343Z,17.90
2018-09-19T01:34:59.593Z,17.70
2018-09-19T01:37:27.913Z,17.70
2018-09-19T01:39:56.141Z,17.70
2018-09-19T01:42:24.337Z,17.70
2018-09-19T01:44:52.563Z,17.70
2018-09-19T01:47:20.770Z,17.80
2018-09-19T01:49:48.972Z,17.90
2018-09-19T01:52:17.209Z,17.90
2018-09-19T01:54:45.478Z,17.90
2018-09-19T01:57:13.819Z,17.80
2018-09-19T01:59:42.053Z,17.60
2018-09-19T02:02:10.302Z,17.70
2018-09-19T02:04:38.489Z,17.60
2018-09-19T02:07:06.786Z,17.50
2018-09-19T02:09:34.987Z,17.40
2018-09-19T02:12:03.278Z,17.40
2018-09-19T02:14:31.510Z,17.50
2018-09-19T02:16:59.745Z,17.50
2018-09-19T02:19:27.995Z,17.40
2018-09-19T02:21:56.653Z,17.30
2018-09-19T02:24:24.879Z,17.20
2018-09-19T02:26:53.134Z,17.10
2018-09-19T02:29:21.353Z,17.10
2018-09-19T02:31:55.914Z,17.00
2018-09-19T02:34:24.251Z,17.00
2018-09-19T02:36:52.454Z,16.90
2018-09-19T02:39:20.721Z,16.90
2018-09-19T02:41:49.009Z,16.80
2018-09-19T02:44:17.240Z,16.90
2018-09-19T02:46:45.581Z,16.90
2018-09-19T02:49:13.847Z,16.90
2018-09-19T02:51:42.070Z,17.00
2018-09-19T02:54:10.345Z,17.00
2018-09-19T02:56:38.680Z,17.00
2018-09-19T02:59:06.936Z,17.00
2018-09-19T03:01:35.196Z,17.00
2018-09-19T03:04:04.495Z,16.90
2018-09-19T03:06:32.794Z,16.80
2018-09-19T03:09:01.060Z,16.80
2018-09-19T03:11:29.371Z,16.80
2018-09-19T03:13:57.613Z,16.80
2018-09-19T03:16:25.883Z,16.70
2018-09-19T03:18:54.362Z,16.70
2018-09-19T03:21:22.612Z,16.70
2018-09-19T03:23:50.813Z,16.70
2018-09-19T03:26:19.014Z,16.70
2018-09-19T03:28:47.669Z,16.70
2018-09-19T03:34:28.376Z,16.70
2018-09-19T03:36:56.609Z,16.70
2018-09-19T03:39:24.826Z,16.70
2018-09-19T03:41:59.461Z,16.60
2018-09-19T03:44:27.735Z,16.10
2018-09-19T03:46:57.728Z,16.10
2018-09-19T03:49:25.987Z,16.20
2018-09-19T03:51:54.547Z,16.30
2018-09-19T03:54:22.772Z,16.10
2018-09-19T03:56:51.085Z,16.00
2018-09-19T03:59:19.647Z,16.10
2018-09-19T04:01:47.923Z,16.20
2018-09-19T04:04:16.191Z,16.00
2018-09-19T04:06:44.394Z,16.10
2018-09-19T04:09:13.797Z,16.20
2018-09-19T04:11:42.043Z,16.30
2018-09-19T04:14:11.322Z,16.30
2018-09-19T04:16:39.786Z,16.40
2018-09-19T04:19:08.009Z,16.60
2018-09-19T04:21:40.565Z,16.70
2018-09-19T04:24:08.947Z,16.60
2018-09-19T04:26:37.494Z,16.70
2018-09-19T04:29:06.013Z,16.80
2018-09-19T04:31:34.286Z,16.80
2018-09-19T04:34:02.570Z,16.90
2018-09-19T04:36:30.788Z,17.00
2018-09-19T04:38:59.015Z,17.00
2018-09-19T04:41:27.299Z,16.90
2018-09-19T04:43:55.513Z,16.90
2018-09-19T04:46:23.759Z,16.90
2018-09-19T04:48:51.947Z,17.00
2018-09-19T04:51:20.172Z,16.90
2018-09-19T04:53:55.038Z,16.90
2018-09-19T04:56:23.307Z,16.90
2018-09-19T04:58:51.637Z,16.90
2018-09-19T05:01:19.879Z,16.80
2018-09-19T05:03:48.120Z,16.70
2018-09-19T05:06:16.326Z,16.80
2018-09-19T05:08:44.562Z,16.80
2018-09-19T05:11:12.784Z,16.80
2018-09-19T05:13:41.135Z,16.80
2018-09-19T05:16:09.359Z,16.90
2018-09-19T05:18:37.729Z,16.90
2018-09-19T05:21:06.041Z,16.80
2018-09-19T05:23:34.319Z,16.80
2018-09-19T05:26:02.497Z,16.80
2018-09-19T05:28:30.870Z,16.70
2018-09-19T05:30:59.318Z,16.70
2018-09-19T05:33:27.517Z,16.70
2018-09-19T05:35:55.818Z,16.70
2018-09-19T05:38:24.049Z,16.70
2018-09-19T05:40:52.264Z,16.70
2018-09-19T05:43:20.504Z,16.80
2018-09-19T05:45:48.825Z,16.70
2018-09-19T05:48:17.073Z,16.70
2018-09-19T05:50:45.253Z,16.80
2018-09-19T05:53:13.555Z,16.80
2018-09-19T05:55:41.793Z,16.90
2018-09-19T05:58:09.987Z,16.90
2018-09-19T06:00:38.258Z,16.90
2018-09-19T06:03:06.524Z,17.00
2018-09-19T06:05:34.810Z,17.10
2018-09-19T06:08:02.980Z,17.20
2018-09-19T06:10:31.277Z,17.30
2018-09-19T06:12:59.550Z,17.40
2018-09-19T06:15:27.722Z,17.50
2018-09-19T06:17:55.957Z,17.60
2018-09-19T06:20:24.193Z,17.70
2018-09-19T06:22:52.433Z,17.80
2018-09-19T06:25:20.756Z,18.00
2018-09-19T06:27:49.243Z,18.20
2018-09-19T06:30:17.492Z,18.40
2018-09-19T06:32:45.746Z,18.60
2018-09-19T06:35:15.964Z,18.80
2018-09-19T06:37:50.812Z,19.10
2018-09-19T06:40:19.049Z,19.30
2018-09-19T06:42:47.260Z,19.60
2018-09-19T06:45:15.467Z,19.70
2018-09-19T06:47:43.712Z,19.80
2018-09-19T06:50:11.990Z,20.00
2018-09-19T06:52:40.281Z,20.30
2018-09-19T06:55:08.508Z,20.60
2018-09-19T06:57:36.817Z,20.90
2018-09-19T07:00:05.604Z,21.10
2018-09-19T07:02:33.881Z,21.40
2018-09-19T07:05:02.107Z,21.60
2018-09-19T07:07:30.330Z,21.70
2018-09-19T07:09:58.609Z,21.90
2018-09-19T07:12:26.843Z,22.20
2018-09-19T07:14:55.056Z,22.30
2018-09-19T07:17:23.358Z,22.60
2018-09-19T07:19:51.576Z,22.80
2018-09-19T07:22:19.765Z,22.90
2018-09-19T07:24:48.089Z,23.10
2018-09-19T07:27:16.312Z,23.30
2018-09-19T07:29:44.567Z,23.60
2018-09-19T07:32:12.871Z,23.90
2018-09-19T07:34:41.173Z,24.10
2018-09-19T07:37:09.458Z,24.30
2018-09-19T07:39:37.645Z,24.50
2018-09-19T07:42:05.891Z,24.50
2018-09-19T07:44:34.465Z,24.80
2018-09-19T07:47:02.692Z,24.90
2018-09-19T07:49:31.060Z,24.70
2018-09-19T07:51:59.275Z,24.90
2018-09-19T07:54:27.506Z,25.20
2018-09-19T07:56:55.781Z,25.10
2018-09-19T07:59:24.034Z,25.30
2018-09-19T08:01:52.248Z,25.50
2018-09-19T08:04:20.404Z,25.70
2018-09-19T08:06:48.623Z,26.00
2018-09-19T08:09:16.932Z,26.20
2018-09-19T08:11:45.159Z,26.30
2018-09-19T08:14:13.475Z,26.50
2018-09-19T08:16:41.711Z,26.70
2018-09-19T08:19:10.144Z,26.90
2018-09-19T08:21:38.428Z,26.90
2018-09-19T08:24:06.657Z,26.80
2018-09-19T08:26:34.930Z,26.70
2018-09-19T08:29:03.078Z,26.90
2018-09-19T08:31:31.287Z,27.00
2018-09-19T08:33:59.488Z,27.10
2018-09-19T08:36:27.742Z,27.30
2018-09-19T08:38:55.996Z,27.60
2018-09-19T08:41:24.241Z,27.90
2018-09-19T08:43:52.486Z,27.80
2018-09-19T08:46:20.704Z,27.90
2018-09-19T08:48:48.927Z,27.90
2018-09-19T08:51:17.141Z,27.90
2018-09-19T08:53:45.352Z,27.90
2018-09-19T08:56:13.562Z,27.90
2018-09-19T08:58:41.812Z,27.60
2018-09-19T09:01:10.074Z,27.30
2018-09-19T09:03:38.294Z,27.10
2018-09-19T09:06:06.607Z,27.10
2018-09-19T09:08:34.797Z,26.80
2018-09-19T09:11:02.988Z,26.60
2018-09-19T09:13:31.299Z,26.70
2018-09-19T09:15:59.530Z,26.70
2018-09-19T09:18:27.754Z,26.70
2018-09-19T09:20:56.134Z,26.60
2018-09-19T09:23:24.450Z,26.60
2018-09-19T09:25:52.653Z,26.50
2018-09-19T09:28:20.910Z,26.40
2018-09-19T09:30:49.099Z,26.40
2018-09-19T09:33:17.699Z,26.40
2018-09-19T09:35:45.918Z,26.20
2018-09-19T09:38:14.192Z,25.90
2018-09-19T09:40:42.594Z,24.90
2018-09-19T09:43:10.806Z,24.80
2018-09-19T09:45:39.127Z,25.30
2018-09-19T09:48:07.549Z,25.40
2018-09-19T09:50:35.800Z,25.00
2018-09-19T09:53:04.229Z,25.30
2018-09-19T09:55:32.509Z,25.50
2018-09-19T09:58:00.799Z,25.40
2018-09-19T10:00:34.533Z,24.60
2018-09-19T10:03:02.840Z,24.60
2018-09-19T10:05:31.183Z,24.80
2018-09-19T10:07:59.385Z,25.00
2018-09-19T10:10:27.600Z,25.20
2018-09-19T10:12:55.839Z,24.20
2018-09-19T10:15:24.117Z,24.10
2018-09-19T10:17:52.512Z,24.20
2018-09-19T10:20:20.734Z,24.20
2018-09-19T10:22:48.977Z,24.30
2018-09-19T10:25:17.211Z,24.10
2018-09-19T10:27:45.449Z,23.40
2018-09-19T10:30:13.748Z,22.70
2018-09-19T10:32:42.152Z,22.10
2018-09-19T10:35:10.411Z,22.00
2018-09-19T10:37:38.611Z,22.00
2018-09-19T10:40:06.981Z,21.90
2018-09-19T10:42:35.313Z,22.00
2018-09-19T10:45:04.223Z,22.10
2018-09-19T10:47:32.482Z,22.20
2018-09-19T10:50:00.731Z,22.40
2018-09-19T10:52:28.957Z,22.60
2018-09-19T10:54:57.191Z,22.80
2018-09-19T10:57:25.437Z,23.10
2018-09-19T10:59:53.777Z,23.30
2018-09-19T11:02:22.077Z,23.60
2018-09-19T11:04:50.368Z,23.80
2018-09-19T11:07:18.711Z,24.00
2018-09-19T11:09:46.922Z,24.20
2018-09-19T11:12:15.138Z,24.30
2018-09-19T11:14:43.364Z,24.40
2018-09-19T11:17:11.748Z,24.30
2018-09-19T11:19:40.049Z,24.30
2018-09-19T11:22:08.274Z,24.40
2018-09-19T11:24:36.552Z,24.50
2018-09-19T11:27:05.008Z,24.60
2018-09-19T11:29:33.221Z,24.70
2018-09-19T11:32:01.505Z,24.90
2018-09-19T11:34:29.775Z,24.90
2018-09-19T11:36:58.037Z,25.00
2018-09-19T11:39:26.228Z,25.10
2018-09-19T11:41:54.482Z,25.30
2018-09-19T11:44:23.011Z,25.40
2018-09-19T11:46:51.244Z,25.40
2018-09-19T11:49:19.499Z,25.50
2018-09-19T11:51:47.723Z,25.50
2018-09-19T11:54:16.240Z,25.60
2018-09-19T11:56:44.477Z,25.70
2018-09-19T11:59:12.766Z,25.80
2018-09-19T12:01:40.993Z,25.80
2018-09-19T12:04:09.177Z,25.90
2018-09-19T12:06:37.393Z,25.90
2018-09-19T12:09:08.919Z,26.00
2018-09-19T12:11:43.855Z,26.10
2018-09-19T12:14:12.121Z,26.10
2018-09-19T12:16:40.621Z,26.20
2018-09-19T12:19:08.872Z,26.20
2018-09-19T12:21:38.218Z,26.20
2018-09-19T12:24:06.525Z,26.20
2018-09-19T12:26:34.874Z,26.30
2018-09-19T12:29:03.079Z,26.30
2018-09-19T12:31:31.405Z,26.30
2018-09-19T12:33:59.667Z,26.30
2018-09-19T12:36:27.921Z,26.40
2018-09-19T12:38:56.229Z,26.40
2018-09-19T12:41:24.548Z,26.40
2018-09-19T12:43:52.876Z,26.40
2018-09-19T12:46:21.098Z,26.50
2018-09-19T12:48:49.498Z,26.50
2018-09-19T12:51:17.755Z,26.60
2018-09-19T12:53:45.990Z,26.60
2018-09-19T12:56:14.205Z,26.60
2018-09-19T12:58:42.600Z,26.60
2018-09-19T13:01:10.889Z,26.70
2018-09-19T13:03:39.157Z,26.70
2018-09-19T13:06:07.325Z,26.70
2018-09-19T13:08:35.642Z,26.70
2018-09-19T13:11:03.909Z,26.70
2018-09-19T13:13:32.262Z,26.70
2018-09-19T13:16:00.474Z,26.70
2018-09-19T13:18:28.817Z,26.80
2018-09-19T13:20:57.065Z,26.80
2018-09-19T13:23:25.472Z,26.90
2018-09-19T13:25:53.741Z,27.00
2018-09-19T13:28:22.054Z,26.90
2018-09-19T13:30:50.387Z,26.90
2018-09-19T13:33:18.925Z,26.90
2018-09-19T13:35:47.245Z,26.90
2018-09-19T13:38:15.538Z,26.90
2018-09-19T13:40:43.850Z,26.90
2018-09-19T13:43:12.168Z,26.90
2018-09-19T13:45:40.504Z,26.90
2018-09-19T13:48:09.492Z,26.90
2018-09-19T13:50:43.710Z,26.90
2018-09-19T13:53:11.946Z,26.90
2018-09-19T13:55:40.181Z,26.90
2018-09-19T13:58:08.455Z,27.00
2018-09-19T14:00:36.874Z,27.00
2018-09-19T14:03:05.293Z,27.00
2018-09-19T14:05:33.633Z,27.10
2018-09-19T14:08:01.955Z,27.10
2018-09-19T14:10:30.197Z,27.00
2018-09-19T14:12:58.723Z,26.90
2018-09-19T14:15:27.162Z,26.90
2018-09-19T14:17:55.403Z,26.90
2018-09-19T14:20:23.722Z,26.90
2018-09-19T14:22:52.239Z,26.90
2018-09-19T14:25:20.490Z,26.90
2018-09-19T14:27:48.739Z,26.80
2018-09-19T14:30:17.087Z,26.80
2018-09-19T14:32:45.297Z,26.80
2018-09-19T14:35:13.570Z,26.80
2018-09-19T14:37:42.490Z,26.70
2018-09-19T14:40:10.770Z,26.70
2018-09-19T14:42:39.033Z,26.70
2018-09-19T14:45:07.385Z,26.70
2018-09-19T14:47:36.050Z,26.80
2018-09-19T14:50:04.589Z,26.80
2018-09-19T14:52:32.856Z,26.70
2018-09-19T14:55:01.262Z,26.70
2018-09-19T14:57:29.691Z,26.70
2018-09-19T14:59:57.881Z,26.60
2018-09-19T15:02:30.133Z,26.60
2018-09-19T15:04:58.358Z,26.60
2018-09-19T15:07:26.601Z,26.50
2018-09-19T15:09:54.926Z,26.60
2018-09-19T15:12:23.157Z,26.60
2018-09-19T15:14:51.505Z,26.60
2018-09-19T15:17:19.798Z,26.60
2018-09-19T15:19:47.992Z,26.60
2018-09-19T15:22:16.249Z,26.60
2018-09-19T15:24:44.653Z,26.60
2018-09-19T15:27:13.257Z,26.60
2018-09-19T15:29:41.510Z,26.50
2018-09-19T15:32:10.609Z,26.60
2018-09-19T15:34:38.879Z,26.50
2018-09-19T15:37:07.511Z,26.40
2018-09-19T15:39:35.732Z,26.40
2018-09-19T15:42:04.071Z,26.40
2018-09-19T15:44:32.310Z,26.40
2018-09-19T15:47:00.570Z,26.30
2018-09-19T15:49:28.850Z,26.10
2018-09-19T15:51:57.117Z,26.00
2018-09-19T15:54:25.904Z,25.90
2018-09-19T15:56:54.156Z,25.80
2018-09-19T15:59:22.469Z,25.70
2018-09-19T16:01:50.799Z,25.70
2018-09-19T16:04:19.114Z,25.60
2018-09-19T16:06:47.485Z,25.60
2018-09-19T16:09:15.836Z,25.50
2018-09-19T16:11:44.053Z,25.40
2018-09-19T16:14:12.298Z,25.40
2018-09-19T16:16:40.483Z,25.30
2018-09-19T16:19:08.734Z,25.20
2018-09-19T16:21:36.996Z,25.20
2018-09-19T16:24:05.218Z,25.10
2018-09-19T16:26:33.483Z,25.10
2018-09-19T16:29:01.668Z,25.10
2018-09-19T16:31:30.957Z,25.00
2018-09-19T16:33:59.142Z,25.00
2018-09-19T16:36:27.454Z,24.90
2018-09-19T16:38:55.732Z,24.90
2018-09-19T16:41:23.957Z,24.90
2018-09-19T16:43:52.339Z,24.80
2018-09-19T16:46:20.549Z,24.80
2018-09-19T16:48:48.769Z,24.80
2018-09-19T16:51:17.074Z,24.70
2018-09-19T16:53:45.359Z,24.70
2018-09-19T16:56:13.619Z,24.70
2018-09-19T16:58:41.972Z,24.70
2018-09-19T17:01:10.595Z,24.60
2018-09-19T17:03:39.079Z,24.50
2018-09-19T17:06:07.338Z,24.40
2018-09-19T17:08:35.527Z,24.40
2018-09-19T17:11:03.800Z,24.30
2018-09-19T17:13:32.186Z,24.20
2018-09-19T17:16:00.512Z,24.20
2018-09-19T17:18:28.753Z,24.10
2018-09-19T17:20:57.064Z,24.00
2018-09-19T17:23:25.295Z,24.00
2018-09-19T17:25:53.594Z,23.90
2018-09-19T17:28:21.766Z,23.90
2018-09-19T17:30:50.005Z,23.90
2018-09-19T17:33:18.316Z,23.80
2018-09-19T17:35:46.757Z,23.80
2018-09-19T17:38:15.042Z,23.80
2018-09-19T17:40:44.713Z,23.70
2018-09-19T17:43:13.161Z,23.60
2018-09-19T17:45:41.450Z,23.60
2018-09-19T17:48:09.744Z,23.50
2018-09-19T17:50:37.968Z,23.50
2018-09-19T17:53:06.425Z,23.50
2018-09-19T17:55:34.701Z,23.40
2018-09-19T17:58:03.069Z,23.40
2018-09-19T18:00:31.353Z,23.40
2018-09-19T18:02:59.827Z,23.30
2018-09-19T18:05:28.130Z,23.30
2018-09-19T18:07:56.365Z,23.40
2018-09-19T18:10:24.720Z,23.30
2018-09-19T18:12:52.956Z,23.30
2018-09-19T18:15:21.202Z,23.20
2018-09-19T18:17:49.448Z,23.20
2018-09-19T18:20:17.858Z,23.10
2018-09-19T18:22:46.142Z,23.00
2018-09-19T18:25:14.436Z,23.00
2018-09-19T18:27:42.815Z,22.90
2018-09-19T18:30:11.198Z,22.90
2018-09-19T18:32:39.578Z,22.90
2018-09-19T18:35:08.820Z,22.80
2018-09-19T18:37:37.030Z,22.80
2018-09-19T18:40:06.250Z,22.80
2018-09-19T18:42:34.516Z,22.70
2018-09-19T18:45:02.798Z,22.60
2018-09-19T18:47:31.089Z,22.60
2018-09-19T18:49:59.371Z,22.60
2018-09-19T18:52:27.624Z,22.60
2018-09-19T18:54:55.904Z,22.50
2018-09-19T18:57:24.291Z,22.50
2018-09-19T18:59:52.762Z,22.50
2018-09-19T19:02:21.141Z,22.40
2018-09-19T19:04:49.533Z,22.30
2018-09-19T19:07:17.773Z,22.30
2018-09-19T19:09:46.022Z,22.30
2018-09-19T19:12:14.233Z,22.20
2018-09-19T19:14:42.507Z,22.20
2018-09-19T19:17:10.722Z,22.10
2018-09-19T19:19:38.962Z,22.10
2018-09-19T19:22:07.189Z,22.00
2018-09-19T19:24:35.536Z,22.00
2018-09-19T19:27:03.887Z,21.90
2018-09-19T19:29:32.237Z,21.80
2018-09-19T19:32:00.619Z,21.80
2018-09-19T19:34:28.926Z,21.70
2018-09-19T19:36:57.300Z,21.60
2018-09-19T19:39:25.680Z,21.50
2018-09-19T19:41:54.323Z,21.50
2018-09-19T19:44:22.541Z,21.50
2018-09-19T19:46:50.872Z,21.40
2018-09-19T19:49:19.169Z,21.40
2018-09-19T19:51:47.387Z,21.30
2018-09-19T19:54:15.623Z,21.20
2018-09-19T19:56:43.867Z,21.10
2018-09-19T20:01:46.732Z,21.10
2018-09-19T20:04:14.998Z,21.00
2018-09-19T20:06:43.270Z,21.00
2018-09-19T20:09:11.608Z,20.90
2018-09-19T20:11:39.807Z,20.90
2018-09-19T20:14:08.061Z,20.90
2018-09-19T20:16:36.390Z,20.80
2018-09-19T20:19:04.563Z,20.80
2018-09-19T20:21:32.806Z,20.70
2018-09-19T20:24:01.281Z,20.70
2018-09-19T20:26:29.489Z,20.60
2018-09-19T20:28:57.811Z,20.60
2018-09-19T20:31:26.139Z,20.50
2018-09-19T20:33:55.050Z,20.40
2018-09-19T20:36:23.443Z,20.40
2018-09-19T20:38:51.781Z,20.30
2018-09-19T20:41:20.186Z,20.20
2018-09-19T20:43:48.432Z,20.20
2018-09-19T20:46:16.633Z,20.10
2018-09-19T20:48:44.939Z,20.10
2018-09-19T20:51:13.181Z,20.00
2018-09-19T20:53:41.447Z,20.00
2018-09-19T20:56:09.727Z,19.90
2018-09-19T20:58:37.964Z,19.90
2018-09-19T21:01:06.599Z,19.90
2018-09-19T21:03:34.806Z,19.90
2018-09-19T21:06:03.081Z,19.90
2018-09-19T21:08:31.576Z,19.80
2018-09-19T21:10:59.839Z,19.80
2018-09-19T21:13:28.253Z,19.70
2018-09-19T21:15:56.477Z,19.70
2018-09-19T21:18:24.686Z,19.60
2018-09-19T21:20:53.931Z,19.50
2018-09-19T21:23:22.148Z,19.40
2018-09-19T21:25:50.472Z,19.40
2018-09-19T21:28:18.720Z,19.40
2018-09-19T21:30:46.982Z,19.30
2018-09-19T21:33:15.215Z,19.30
2018-09-19T21:35:43.420Z,19.20
2018-09-19T21:38:11.698Z,19.30
2018-09-19T21:40:39.998Z,19.20
2018-09-19T21:43:08.198Z,19.30
2018-09-19T21:45:36.609Z,19.30
2018-09-19T21:48:04.810Z,19.30
2018-09-19T21:50:33.005Z,19.20
2018-09-19T21:53:01.269Z,19.30
2018-09-19T21:58:04.205Z,19.30
2018-09-19T22:00:32.423Z,19.20
2018-09-19T22:03:00.651Z,19.10
2018-09-19T22:05:28.909Z,19.00
2018-09-19T22:07:57.171Z,18.90
2018-09-19T22:10:25.517Z,18.90
2018-09-19T22:12:53.859Z,18.90
2018-09-19T22:15:22.134Z,19.00
2018-09-19T22:17:50.393Z,19.00
2018-09-19T22:20:18.600Z,19.00
2018-09-19T22:22:46.873Z,19.00
2018-09-19T22:25:15.080Z,18.90
2018-09-19T22:27:43.354Z,18.90
2018-09-19T22:30:11.469Z,18.80
2018-09-19T22:32:39.692Z,18.80
2018-09-19T22:35:07.991Z,18.80
2018-09-19T22:37:36.582Z,18.80
2018-09-19T22:40:04.865Z,18.80
2018-09-19T22:42:33.031Z,18.80
2018-09-19T22:45:01.226Z,18.80
2018-09-19T22:47:29.387Z,18.80
2018-09-19T22:49:57.587Z,18.70
2018-09-19T22:52:25.754Z,18.70
2018-09-19T22:54:53.981Z,18.70
2018-09-19T22:57:22.163Z,18.60
2018-09-19T22:59:50.318Z,18.50
2018-09-19T23:02:18.509Z,18.50
2018-09-19T23:04:46.736Z,18.50
2018-09-19T23:07:14.915Z,18.40
2018-09-19T23:09:43.170Z,18.40
2018-09-19T23:12:11.391Z,18.40
2018-09-19T23:14:39.581Z,18.40
2018-09-19T23:17:07.794Z,18.40
2018-09-19T23:19:35.992Z,18.40
2018-09-19T23:22:04.208Z,18.40
2018-09-19T23:24:32.423Z,18.40
2018-09-19T23:27:00.585Z,18.40
2018-09-19T23:29:28.850Z,18.40
2018-09-19T23:31:57.026Z,18.30
2018-09-19T23:34:25.232Z,18.30
2018-09-19T23:36:53.476Z,18.30
2018-09-19T23:39:21.681Z,18.20
2018-09-19T23:41:49.937Z,18.20
2018-09-19T23:44:18.146Z,18.20
2018-09-19T23:46:46.368Z,18.20
2018-09-19T23:49:14.561Z,18.20
2018-09-19T23:51:42.768Z,18.20
2018-09-19T23:54:10.978Z,18.20
2018-09-19T23:56:39.186Z,18.20
2018-09-19T23:59:07.461Z,18.30
